Time,TemperatureF,DewpointF,PressureIn,WindDirection,WindDirectionDegrees,WindSpeedMPH,WindSpeedGustMPH,Humidity,HourlyPrecipIn,Conditions,Clouds,dailyrainin,SoftwareType,DateUTC
2013-03-04 00:00:00,43.4,37.0,30.09,SSW,204,0.0,0.0,78,0.00,CLR,,0.00,WeatherDisplay:10.37,2013-03-04 00:00:00,
2013-03-04 00:15:00,43.6,36.9,30.09,SSW,212,0.0,1.0,77,0.00,CLR,,0.00,WeatherDisplay:10.37,2013-03-04 00:15:00,
2013-03-04 00:30:00,44.1,37.3,30.08,SW,217,0.0,1.0,77,0.00,CLR,,0.00,WeatherDisplay:10.37,2013-03-04 00:30:00,
2013-03-04 00:45:00,43.9,36.5,30.08,SW,217,0.0,1.0,75,0.00,CLR,,0.00,WeatherDisplay:10.37,2013-03-04 00:45:00,
2013-03-04 01:00:00,43.6,36.2,30.08,South,185,0.0,2.0,75,0.00,CLR,,0.00,WeatherDisplay:10.37,2013-03-04 01:00:00,
2013-03-04 01:15:00,43.8,36.7,30.08,SSE,163,0.0,0.0,76,0.00,CLR,,0.00,WeatherDisplay:10.37,2013-03-04 01:15:00,
2013-03-04 01:30:00,43.3,36.6,30.08,SSW,196,0.0,1.0,77,0.00,CLR,,0.00,WeatherDisplay:10.37,2013-03-04 01:30:00,
2013-03-04 01:45:00,43.4,36.3,30.07,SSW,205,0.0,1.0,76,0.00,CLR,,0.00,WeatherDisplay:10.37,2013-03-04 01:45:00,
2013-03-04 02:00:00,43.3,36.6,30.07,SSW,204,1.0,3.0,77,0.00,CLR,,0.00,WeatherDisplay:10.37,2013-03-04 02:00:00,
2013-03-04 02:15:00,43.0,36.6,30.06,SW,219,0.0,2.0,78,0.00,CLR,,0.00,WeatherDisplay:10.37,2013-03-04 02:15:00,
2013-03-04 02:30:00,42.9,36.5,30.06,SSW,212,0.0,2.0,78,0.00,CLR,,0.00,WeatherDisplay:10.37,2013-03-04 02:30:00,
2013-03-04 02:45:00,42.8,36.7,30.05,SW,219,1.0,3.0,79,0.00,CLR,,0.00,WeatherDisplay:10.37,2013-03-04 02:45:00,
2013-03-04 03:00:00,42.7,36.6,30.05,South,180,0.0,2.0,79,0.00,CLR,,0.00,WeatherDisplay:10.37,2013-03-04 03:00:00,
2013-03-04 03:15:00,42.5,37.1,30.04,West,259,0.0,3.0,81,0.00,CLR,,0.00,WeatherDisplay:10.37,2013-03-04 03:15:00,
2013-03-04 03:30:00,42.4,37.0,30.04,SW,222,1.0,2.0,81,0.00,CLR,,0.00,WeatherDisplay:10.37,2013-03-04 03:30:00,
2013-03-04 03:45:00,42.4,37.0,30.04,SW,226,0.0,2.0,81,0.00,CLR,,0.00,WeatherDisplay:10.37,2013-03-04 03:45:00,
2013-03-04 04:00:00,42.4,37.0,30.03,SW,218,0.0,2.0,81,0.00,CLR,,0.00,WeatherDisplay:10.37,2013-03-04 04:00:00,
2013-03-04 04:15:00,42.2,36.8,30.03,WSW,242,0.0,0.0,81,0.00,CLR,,0.00,WeatherDisplay:10.37,2013-03-04 04:15:00,
2013-03-04 04:30:00,42.1,36.7,30.02,WSW,242,0.0,0.0,81,0.00,CLR,,0.00,WeatherDisplay:10.37,2013-03-04 04:30:00,
2013-03-04 04:45:00,42.2,36.8,30.02,WSW,241,0.0,1.0,81,0.00,CLR,,0.00,WeatherDisplay:10.37,2013-03-04 04:45:00,
2013-03-04 05:00:00,42.0,36.9,30.02,SW,215,0.0,1.0,82,0.00,CLR,,0.00,WeatherDisplay:10.37,2013-03-04 05:00:00,
2013-03-04 05:15:00,42.3,36.9,30.02,SW,219,0.0,1.0,81,0.00,CLR,,0.00,WeatherDisplay:10.37,2013-03-04 05:15:00,
2013-03-04 05:30:00,42.0,37.2,30.01,SSW,203,0.0,2.0,83,0.00,CLR,,0.00,WeatherDisplay:10.37,2013-03-04 05:30:00,
2013-03-04 05:45:00,41.8,37.0,30.01,SW,227,1.0,2.0,83,0.00,CLR,,0.00,WeatherDisplay:10.37,2013-03-04 05:45:00,
2013-03-04 06:00:00,41.6,36.8,30.01,WSW,245,0.0,1.0,83,0.00,CLR,,0.00,WeatherDisplay:10.37,2013-03-04 06:00:00,
2013-03-04 06:15:00,41.6,37.4,30.00,SW,226,0.0,2.0,85,0.00,CLR,,0.00,WeatherDisplay:10.37,2013-03-04 06:15:00,
2013-03-04 06:30:00,41.7,36.6,30.00,WSW,240,0.0,3.0,82,0.00,CLR,,0.00,WeatherDisplay:10.37,2013-03-04 06:30:00,
2013-03-04 06:45:00,41.7,36.9,30.00,SW,215,1.0,2.0,83,0.00,CLR,,0.00,WeatherDisplay:10.37,2013-03-04 06:45:00,
2013-03-04 07:00:00,41.5,37.1,30.00,SSW,211,1.0,2.0,84,0.00,CLR,,0.00,WeatherDisplay:10.37,2013-03-04 07:00:00,
2013-03-04 07:15:00,41.5,37.0,29.99,SW,223,1.0,2.0,84,0.00,CLR,,0.00,WeatherDisplay:10.37,2013-03-04 07:15:00,
2013-03-04 07:30:00,41.4,36.4,29.99,SW,224,1.0,2.0,82,0.00,CLR,,0.00,WeatherDisplay:10.37,2013-03-04 07:30:00,
2013-03-04 07:45:00,41.8,36.7,29.99,SW,232,0.0,2.0,82,0.00,CLR,,0.00,WeatherDisplay:10.37,2013-03-04 07:45:00,
2013-03-04 08:00:00,41.7,36.3,29.99,SW,219,0.0,1.0,81,0.00,CLR,,0.00,WeatherDisplay:10.37,2013-03-04 08:00:00,
2013-03-04 08:15:00,42.0,36.6,29.99,SW,218,0.0,1.0,81,0.00,CLR,,0.00,WeatherDisplay:10.37,2013-03-04 08:15:00,
2013-03-04 08:30:00,42.1,36.4,29.99,SW,218,0.0,1.0,80,0.00,CLR,,0.00,WeatherDisplay:10.37,2013-03-04 08:30:00,
2013-03-04 08:45:00,42.4,36.1,29.99,ESE,120,1.0,2.0,78,0.00,CLR,,0.00,WeatherDisplay:10.37,2013-03-04 08:45:00,
2013-03-04 09:00:00,42.4,36.0,29.98,SSE,148,1.0,3.0,78,0.00,CLR,,0.00,WeatherDisplay:10.37,2013-03-04 09:00:00,
2013-03-04 09:15:00,42.9,36.8,29.98,SE,141,1.0,3.0,79,0.00,CLR,,0.00,WeatherDisplay:10.37,2013-03-04 09:15:00,
2013-03-04 09:30:00,42.7,35.7,29.98,South,184,3.0,5.0,76,0.00,CLR,,0.00,WeatherDisplay:10.37,2013-03-04 09:30:00,
2013-03-04 09:45:00,42.6,35.2,29.97,SSW,202,2.0,5.0,75,0.00,CLR,,0.00,WeatherDisplay:10.37,2013-03-04 09:45:00,
2013-03-04 10:00:00,42.9,35.5,29.97,SSW,195,3.0,5.0,75,0.00,CLR,,0.00,WeatherDisplay:10.37,2013-03-04 10:00:00,
2013-03-04 10:15:00,43.3,35.6,29.96,South,184,2.0,5.0,74,0.00,CLR,,0.00,WeatherDisplay:10.37,2013-03-04 10:15:00,
2013-03-04 10:30:00,43.3,34.5,29.95,SSW,201,1.0,3.0,71,0.00,CLR,,0.00,WeatherDisplay:10.37,2013-03-04 10:30:00,
2013-03-04 10:45:00,43.5,34.7,29.95,SSW,205,1.0,4.0,71,0.00,CLR,,0.00,WeatherDisplay:10.37,2013-03-04 10:45:00,
2013-03-04 11:00:00,43.9,35.1,29.95,South,170,1.0,3.0,71,0.00,CLR,,0.00,WeatherDisplay:10.37,2013-03-04 11:00:00,
2013-03-04 11:15:00,44.1,34.6,29.95,East,100,2.0,4.0,69,0.00,CLR,,0.00,WeatherDisplay:10.37,2013-03-04 11:15:00,
2013-03-04 11:30:00,44.5,35.0,29.95,ESE,113,2.0,4.0,69,0.00,CLR,,0.00,WeatherDisplay:10.37,2013-03-04 11:30:00,
2013-03-04 11:45:00,44.3,34.4,29.94,East,94,2.0,4.0,68,0.00,CLR,,0.00,WeatherDisplay:10.37,2013-03-04 11:45:00,
2013-03-04 12:00:00,44.1,35.3,29.94,East,83,3.0,6.0,71,0.00,CLR,,0.00,WeatherDisplay:10.37,2013-03-04 12:00:00,
2013-03-04 12:15:00,43.6,34.8,29.93,ENE,73,5.0,6.0,71,0.00,CLR,,0.00,WeatherDisplay:10.37,2013-03-04 12:15:00,
2013-03-04 12:30:00,43.5,35.8,29.92,ENE,74,6.0,8.0,74,0.00,CLR,,0.00,WeatherDisplay:10.37,2013-03-04 12:30:00,
2013-03-04 12:45:00,43.4,37.3,29.91,East,80,5.0,12.0,79,0.00,CLR,,0.00,WeatherDisplay:10.37,2013-03-04 12:45:00,
2013-03-04 13:00:00,43.5,37.5,29.91,ENE,73,6.0,10.0,79,0.00,CLR,,0.00,WeatherDisplay:10.37,2013-03-04 13:00:00,
2013-03-04 13:15:00,43.5,37.4,29.90,ENE,78,6.0,10.0,79,0.00,CLR,,0.00,WeatherDisplay:10.37,2013-03-04 13:15:00,
2013-03-04 13:30:00,43.5,37.1,29.89,ENE,76,7.0,12.0,78,0.00,CLR,,0.00,WeatherDisplay:10.37,2013-03-04 13:30:00,
2013-03-04 13:45:00,43.4,37.0,29.88,East,80,6.0,12.0,78,0.00,CLR,,0.00,WeatherDisplay:10.37,2013-03-04 13:45:00,
2013-03-04 14:00:00,43.7,37.2,29.87,ENE,69,5.0,10.0,78,0.00,CLR,,0.00,WeatherDisplay:10.37,2013-03-04 14:00:00,
2013-03-04 14:15:00,43.5,37.1,29.87,ENE,68,5.0,10.0,78,0.00,CLR,,0.00,WeatherDisplay:10.37,2013-03-04 14:15:00,
2013-03-04 14:30:00,43.4,36.7,29.86,ENE,69,7.0,10.0,77,0.00,CLR,,0.00,WeatherDisplay:10.37,2013-03-04 14:30:00,
2013-03-04 14:45:00,43.4,36.0,29.85,ENE,72,5.0,12.0,75,0.00,CLR,,0.00,WeatherDisplay:10.37,2013-03-04 14:45:00,
2013-03-04 15:00:00,43.4,37.0,29.84,ENE,76,6.0,12.0,78,0.00,CLR,,0.00,WeatherDisplay:10.37,2013-03-04 15:00:00,
2013-03-04 15:15:00,43.6,37.2,29.84,ENE,77,6.0,9.0,78,0.00,CLR,,0.00,WeatherDisplay:10.37,2013-03-04 15:15:00,
2013-03-04 15:30:00,43.5,36.8,29.84,ENE,72,3.0,12.0,77,0.00,CLR,,0.00,WeatherDisplay:10.37,2013-03-04 15:30:00,
2013-03-04 15:45:00,43.4,36.0,29.83,ENE,71,6.0,10.0,75,0.00,CLR,,0.00,WeatherDisplay:10.37,2013-03-04 15:45:00,
2013-03-04 16:00:00,43.0,35.3,29.82,ENE,64,7.0,12.0,74,0.00,CLR,,0.00,WeatherDisplay:10.37,2013-03-04 16:00:00,
2013-03-04 16:15:00,42.9,35.9,29.82,ENE,64,6.0,10.0,76,0.00,CLR,,0.00,WeatherDisplay:10.37,2013-03-04 16:15:00,
2013-03-04 16:30:00,42.8,36.4,29.81,ENE,64,5.0,8.0,78,0.00,CLR,,0.00,WeatherDisplay:10.37,2013-03-04 16:30:00,
2013-03-04 16:45:00,42.1,36.3,29.81,ENE,63,8.0,10.0,80,0.00,CLR,,0.00,WeatherDisplay:10.37,2013-03-04 16:45:00,
2013-03-04 17:00:00,41.5,36.7,29.81,ENE,59,5.0,10.0,83,0.00,CLR,,0.00,WeatherDisplay:10.37,2013-03-04 17:00:00,
2013-03-04 17:15:00,41.2,36.4,29.81,NE,56,2.0,10.0,83,0.00,CLR,,0.00,WeatherDisplay:10.37,2013-03-04 17:15:00,
2013-03-04 17:30:00,41.1,36.0,29.81,NE,50,5.0,10.0,82,0.00,CLR,,0.00,WeatherDisplay:10.37,2013-03-04 17:30:00,
2013-03-04 17:45:00,40.8,36.0,29.81,NE,47,5.0,9.0,83,0.00,CLR,,0.00,WeatherDisplay:10.37,2013-03-04 17:45:00,
2013-03-04 18:00:00,40.4,35.6,29.80,NE,36,3.0,9.0,83,0.00,CLR,,0.00,WeatherDisplay:10.37,2013-03-04 18:00:00,
2013-03-04 18:15:00,40.1,35.4,29.80,NE,46,3.0,6.0,83,0.00,CLR,,0.00,WeatherDisplay:10.37,2013-03-04 18:15:00,
2013-03-04 18:30:00,40.0,35.3,29.80,NE,39,5.0,7.0,83,0.00,CLR,,0.00,WeatherDisplay:10.37,2013-03-04 18:30:00,
2013-03-04 18:45:00,39.8,35.4,29.80,NE,38,3.0,7.0,84,0.00,CLR,,0.00,WeatherDisplay:10.37,2013-03-04 18:45:00,
2013-03-04 19:00:00,39.8,35.4,29.80,NE,40,2.0,7.0,84,0.00,CLR,,0.00,WeatherDisplay:10.37,2013-03-04 19:00:00,
2013-03-04 19:15:00,39.6,35.2,29.79,NE,38,3.0,7.0,84,0.00,CLR,,0.00,WeatherDisplay:10.37,2013-03-04 19:15:00,
2013-03-04 19:30:00,39.6,35.5,29.79,NNE,33,5.0,7.0,85,0.00,CLR,,0.00,WeatherDisplay:10.37,2013-03-04 19:30:00,
2013-03-04 19:45:00,39.5,35.4,29.79,NNE,32,5.0,7.0,85,0.00,CLR,,0.00,WeatherDisplay:10.37,2013-03-04 19:45:00,
2013-03-04 20:00:00,39.3,35.2,29.78,NE,37,3.0,6.0,85,0.00,CLR,,0.00,WeatherDisplay:10.37,2013-03-04 20:00:00,
2013-03-04 20:15:00,39.2,35.4,29.78,NE,44,3.0,6.0,86,0.00,CLR,,0.00,WeatherDisplay:10.37,2013-03-04 20:15:00,
2013-03-04 20:30:00,39.2,35.4,29.78,NE,39,3.0,6.0,86,0.00,CLR,,0.00,WeatherDisplay:10.37,2013-03-04 20:30:00,
2013-03-04 20:45:00,39.3,35.5,29.77,NE,47,3.0,6.0,86,0.00,CLR,,0.00,WeatherDisplay:10.37,2013-03-04 20:45:00,
2013-03-04 21:00:00,39.3,35.5,29.77,NE,51,2.0,6.0,86,0.00,CLR,,0.00,WeatherDisplay:10.37,2013-03-04 21:00:00,